Time;durP1;ratioP1;P1;durP2;ratioP2;P2;SDS_P1;SDS_P2;PMS_P1;PMS_P2;Temp;Humidity;BMP_temperature;BMP_pressure;BME280_temperature;BME280_humidity;BME280_pressure;Samples;Min_cycle;Max_cycle;Signal;HPM_P1;HPM_P2
2022/12/20 00:04:54;;;;;;;25.88;17.58;;;-0.30;71.60;;;;;;3098035;28;20553;-47
2022/12/20 00:07:19;;;;;;;24.83;17.90;;;-0.30;71.10;;;;;;5048364;28;20041;-48
2022/12/20 00:09:45;;;;;;;24.83;17.95;;;-0.30;71.10;;;;;;5036048;28;20032;-47
2022/12/20 00:12:10;;;;;;;22.58;16.00;;;-0.30;71.10;;;;;;5036472;28;20025;-47
2022/12/20 00:14:36;;;;;;;19.70;14.55;;;-0.40;71.20;;;;;;5036167;28;20030;-49
2022/12/20 00:17:02;;;;;;;18.48;13.52;;;-0.40;71.30;;;;;;5043108;28;20040;-47
2022/12/20 00:19:27;;;;;;;18.58;13.13;;;-0.40;71.40;;;;;;5041944;28;20052;-46
2022/12/20 00:21:53;;;;;;;17.27;14.00;;;-0.40;71.40;;;;;;5036272;28;20387;-49
2022/12/20 00:24:19;;;;;;;20.48;14.02;;;-0.40;71.40;;;;;;5036308;28;20028;-46
2022/12/20 00:26:44;;;;;;;18.55;13.98;;;-0.40;71.40;;;;;;5036762;28;20068;-49
2022/12/20 00:29:10;;;;;;;18.33;14.52;;;-0.40;71.40;;;;;;5036216;28;20037;-47
2022/12/20 00:31:35;;;;;;;18.27;14.15;;;-0.50;71.40;;;;;;5036130;28;20468;-46
2022/12/20 00:34:01;;;;;;;19.30;14.73;;;-0.50;71.50;;;;;;5053034;28;20033;-49
2022/12/20 00:36:29;;;;;;;19.35;14.20;;;-0.50;71.60;;;;;;5038229;28;20060;-46
2022/12/20 00:38:56;;;;;;;19.85;15.00;;;-0.50;71.60;;;;;;5049261;28;20040;-49
2022/12/20 00:41:25;;;;;;;19.42;14.48;;;-0.50;71.60;;;;;;5056024;28;20029;-47
2022/12/20 00:43:51;;;;;;;16.02;12.70;;;-0.50;71.60;;;;;;5055860;28;20507;-48
2022/12/20 00:46:19;;;;;;;17.90;13.98;;;-0.50;71.80;;;;;;5055568;28;20503;-46
2022/12/20 00:48:45;;;;;;;20.00;14.00;;;-0.50;71.90;;;;;;5055278;28;20021;-46
2022/12/20 00:51:13;;;;;;;18.38;13.40;;;-0.50;71.90;;;;;;5039563;28;20028;-46
2022/12/20 00:53:40;;;;;;;16.13;13.75;;;-0.50;71.90;;;;;;5035688;28;20044;-46
2022/12/20 00:56:07;;;;;;;22.73;14.30;;;-0.50;71.90;;;;;;5035614;28;20064;-47
2022/12/20 00:58:34;;;;;;;17.17;13.77;;;-0.50;71.90;;;;;;5035607;28;20022;-46
2022/12/20 01:01:00;;;;;;;19.33;14.27;;;-0.40;71.90;;;;;;5036200;28;20045;-53
2022/12/20 01:03:25;;;;;;;19.25;14.15;;;-0.50;71.80;;;;;;5035561;28;20029;-51
2022/12/20 01:05:56;;;;;;;18.70;14.88;;;-0.50;71.80;;;;;;5035177;28;20484;-54
2022/12/20 01:08:23;;;;;;;20.98;15.93;;;-0.50;71.90;;;;;;5035467;28;20428;-52
2022/12/20 01:11:03;;;;;;;19.80;16.27;;;-0.50;71.90;;;;;;5035724;28;20375;-53
2022/12/20 01:13:29;;;;;;;23.25;16.23;;;-0.40;71.90;;;;;;5035393;28;20021;-52
2022/12/20 01:15:55;;;;;;;22.55;15.55;;;-0.40;71.90;;;;;;5036103;28;20064;-51
2022/12/20 01:18:21;;;;;;;22.13;15.13;;;-0.40;71.90;;;;;;5036094;28;20116;-52
2022/12/20 01:20:47;;;;;;;19.60;13.23;;;-0.50;71.80;;;;;;5034297;28;20024;-52
2022/12/20 01:23:13;;;;;;;20.20;14.57;;;-0.50;71.80;;;;;;5035219;28;20017;-53
2022/12/20 01:25:39;;;;;;;19.20;13.63;;;-0.50;71.70;;;;;;5035425;28;20036;-53
2022/12/20 01:28:05;;;;;;;15.70;12.43;;;-0.50;71.70;;;;;;5035163;28;20033;-54
2022/12/20 01:30:30;;;;;;;17.25;12.52;;;-0.50;71.90;;;;;;5035050;28;20063;-52
2022/12/20 01:32:56;;;;;;;16.30;11.48;;;-0.50;71.90;;;;;;5035542;28;20026;-53
2022/12/20 01:35:21;;;;;;;16.58;12.35;;;-0.50;71.90;;;;;;5034897;28;20026;-53
2022/12/20 01:37:47;;;;;;;15.75;12.20;;;-0.50;71.90;;;;;;5034861;28;20037;-52
2022/12/20 01:40:13;;;;;;;15.82;12.15;;;-0.50;71.80;;;;;;5034917;28;20048;-53
2022/12/20 01:42:38;;;;;;;17.92;13.05;;;-0.50;71.80;;;;;;5034813;28;20052;-52
2022/12/20 01:45:11;;;;;;;17.38;12.80;;;-0.60;71.60;;;;;;5034785;28;20021;-54
2022/12/20 01:47:37;;;;;;;17.80;13.25;;;-0.60;71.70;;;;;;5034742;28;20026;-53
2022/12/20 01:50:05;;;;;;;18.33;12.63;;;-0.70;71.80;;;;;;5034750;28;20032;-52
2022/12/20 01:52:36;;;;;;;18.52;13.10;;;-0.70;71.80;;;;;;5034626;28;20064;-52
2022/12/20 01:55:21;;;;;;;18.58;12.90;;;-0.70;71.90;;;;;;5034642;28;20079;-53
2022/12/20 01:57:53;;;;;;;17.25;12.25;;;-0.80;71.90;;;;;;5034118;28;20427;-53
2022/12/20 02:00:19;;;;;;;15.70;11.13;;;-0.80;72.00;;;;;;5034483;28;20068;-52
2022/12/20 02:02:47;;;;;;;14.30;11.00;;;-0.90;72.10;;;;;;5034423;28;20030;-53
2022/12/20 02:05:14;;;;;;;13.40;10.05;;;-0.90;72.30;;;;;;5034192;28;20045;-52
2022/12/20 02:07:42;;;;;;;13.55;9.50;;;-1.00;72.40;;;;;;5034419;28;20017;-53
2022/12/20 02:10:10;;;;;;;12.80;9.48;;;-1.00;72.60;;;;;;5034308;28;20503;-53
2022/12/20 02:12:41;;;;;;;10.98;8.43;;;-1.00;72.80;;;;;;5034285;28;20114;-53
2022/12/20 02:15:16;;;;;;;13.30;9.43;;;-1.00;72.90;;;;;;5034250;28;20079;-53
2022/12/20 02:18:00;;;;;;;12.40;9.15;;;-1.00;72.80;;;;;;5033826;28;20498;-52
2022/12/20 02:20:48;;;;;;;11.40;8.88;;;-1.10;72.90;;;;;;5034206;28;20017;-49
2022/12/20 02:23:23;;;;;;;12.43;9.18;;;-1.10;73.00;;;;;;5034633;28;20044;-53
2022/12/20 02:26:15;;;;;;;12.38;10.15;;;-1.10;73.00;;;;;;5034599;28;20026;-52
2022/12/20 02:28:56;;;;;;;13.20;10.02;;;-1.10;73.10;;;;;;5033166;28;20040;-53
2022/12/20 02:31:28;;;;;;;11.93;10.63;;;-1.10;73.30;;;;;;5033767;28;20412;-52
2022/12/20 02:33:56;;;;;;;13.82;11.95;;;-1.10;73.30;;;;;;5033956;28;20059;-53
2022/12/20 02:36:24;;;;;;;15.98;11.73;;;-1.10;73.30;;;;;;5034119;28;20025;-51
2022/12/20 02:38:50;;;;;;;14.23;11.77;;;-1.10;73.40;;;;;;5033615;28;20045;-51
2022/12/20 02:41:42;;;;;;;15.27;11.80;;;-1.10;73.50;;;;;;5033930;28;20049;-50
2022/12/20 02:47:01;;;;;;;12.88;10.40;;;-1.00;73.40;;;;;;5033772;28;20553;-53
2022/12/20 02:49:31;;;;;;;12.57;10.40;;;-1.00;73.40;;;;;;5033722;28;20135;-53
2022/12/20 02:52:00;;;;;;;11.63;9.32;;;-1.00;73.40;;;;;;5033755;28;20032;-52
2022/12/20 02:54:26;;;;;;;11.65;9.48;;;-1.00;73.70;;;;;;5033748;28;20018;-51
2022/12/20 02:57:00;;;;;;;11.23;8.45;;;-1.00;73.30;;;;;;5033629;28;20112;-50
2022/12/20 02:59:40;;;;;;;12.48;10.13;;;-1.00;73.20;;;;;;5033678;28;20361;-50
2022/12/20 03:02:07;;;;;;;15.55;13.10;;;-1.00;73.30;;;;;;5033725;28;20117;-50
2022/12/20 03:04:36;;;;;;;20.63;18.45;;;-1.00;73.20;;;;;;5033264;28;20045;-52
2022/12/20 03:07:06;;;;;;;26.40;23.73;;;-0.90;73.10;;;;;;5033699;28;20056;-52
2022/12/20 03:09:34;;;;;;;26.40;23.70;;;-0.90;73.00;;;;;;5033575;28;20021;-50
2022/12/20 03:12:00;;;;;;;27.55;24.77;;;-1.00;72.90;;;;;;5033645;28;20537;-52
2022/12/20 03:14:26;;;;;;;28.42;25.50;;;-1.00;72.90;;;;;;5033857;28;20029;-51
2022/12/20 03:16:52;;;;;;;25.63;22.92;;;-1.00;72.80;;;;;;5033440;28;20033;-51
2022/12/20 03:19:18;;;;;;;24.92;22.42;;;-1.00;72.80;;;;;;5033492;28;20045;-52
2022/12/20 03:21:44;;;;;;;22.77;20.42;;;-1.00;72.90;;;;;;5033466;28;20029;-52
2022/12/20 03:24:12;;;;;;;21.15;19.05;;;-0.90;72.80;;;;;;5033455;28;20021;-51
2022/12/20 03:26:39;;;;;;;17.02;15.32;;;-0.90;72.90;;;;;;5033474;28;20025;-49
2022/12/20 03:29:05;;;;;;;16.90;15.10;;;-0.90;72.70;;;;;;5033407;28;20032;-51
2022/12/20 03:31:31;;;;;;;16.58;14.20;;;-0.90;72.60;;;;;;5033234;28;20049;-53
2022/12/20 03:33:57;;;;;;;17.38;15.50;;;-0.90;72.60;;;;;;5033378;28;20044;-48
2022/12/20 03:36:23;;;;;;;15.02;13.02;;;-0.90;72.50;;;;;;5033602;28;20026;-51
2022/12/20 03:38:49;;;;;;;16.00;12.95;;;-0.90;72.60;;;;;;5033351;28;20361;-53
2022/12/20 03:41:15;;;;;;;17.75;14.77;;;-0.90;72.60;;;;;;5032993;28;20079;-53
2022/12/20 03:43:41;;;;;;;15.77;13.55;;;-0.90;72.60;;;;;;5035393;28;20025;-52
2022/12/20 03:46:06;;;;;;;13.90;11.40;;;-0.80;72.50;;;;;;5036927;28;20037;-52
2022/12/20 03:48:32;;;;;;;14.75;11.35;;;-0.80;72.50;;;;;;5043190;28;20094;-53
2022/12/20 03:50:57;;;;;;;12.38;10.02;;;-0.80;72.40;;;;;;5042149;28;20048;-52
2022/12/20 03:53:23;;;;;;;15.07;10.52;;;-0.80;72.60;;;;;;5036358;28;20534;-52
2022/12/20 03:55:49;;;;;;;14.23;10.43;;;-0.80;72.10;;;;;;5035968;28;20026;-51
2022/12/20 03:58:14;;;;;;;11.60;10.18;;;-0.80;72.10;;;;;;5037590;28;20033;-52
2022/12/20 04:00:40;;;;;;;13.20;10.07;;;-0.80;72.10;;;;;;5036727;28;20025;-52
2022/12/20 04:41:25;;;;;;;;;;;-0.70;71.90;;;;;;2550357;27;1270391;-51
2022/12/20 04:43:56;;;;;;;10.68;8.30;;;-0.70;71.80;;;;;;5090214;28;20325;-52
2022/12/20 04:46:23;;;;;;;13.02;8.93;;;-0.60;71.90;;;;;;5090544;28;20101;-52
2022/12/20 04:48:49;;;;;;;11.30;8.77;;;-0.60;71.70;;;;;;5090230;28;20584;-50
2022/12/20 04:51:15;;;;;;;11.40;8.27;;;-0.60;71.60;;;;;;5085867;28;20099;-53
2022/12/20 04:53:47;;;;;;;11.52;8.63;;;-0.60;71.50;;;;;;5083672;28;20106;-53
2022/12/20 04:56:27;;;;;;;11.07;8.80;;;-0.50;71.60;;;;;;5069586;28;20055;-50
2022/12/20 04:58:55;;;;;;;11.25;8.80;;;-0.50;71.40;;;;;;5082134;28;20039;-53
2022/12/20 05:01:21;;;;;;;10.98;8.43;;;-0.50;71.30;;;;;;5069752;28;20025;-50
2022/12/20 05:03:47;;;;;;;13.88;10.05;;;-0.40;71.30;;;;;;5069681;28;20036;-53
2022/12/20 05:06:13;;;;;;;12.40;9.30;;;-0.40;71.40;;;;;;5069838;28;20421;-50
2022/12/20 05:08:39;;;;;;;11.48;8.43;;;-0.40;71.30;;;;;;5081138;28;20020;-50
2022/12/20 05:11:05;;;;;;;12.50;9.25;;;-0.30;71.30;;;;;;5089718;28;20497;-53
2022/12/20 05:13:31;;;;;;;13.77;8.85;;;-0.30;71.30;;;;;;5072792;28;20039;-51
2022/12/20 05:15:58;;;;;;;12.63;8.77;;;-0.30;71.30;;;;;;5055943;28;20025;-52
2022/12/20 05:18:25;;;;;;;13.45;9.38;;;-0.30;71.00;;;;;;5056100;28;20024;-54
2022/12/20 05:26:16;;;;;;;11.57;8.52;;;-0.20;70.70;;;;;;5055908;28;20490;-54
2022/12/20 05:26:23;;;;;;;12.27;8.95;;;-0.20;70.20;;;;;;5056169;28;20039;-55
2022/12/20 05:28:49;;;;;;;10.90;8.10;;;-0.30;69.90;;;;;;5055601;28;20024;-51
2022/12/20 06:04:57;;;;;;;9.45;7.53;;;0.10;68.20;;;;;;4523152;28;20151;-54
2022/12/20 06:07:23;;;;;;;11.77;8.00;;;0.10;68.10;;;;;;5055462;28;20154;-52
2022/12/20 06:09:49;;;;;;;9.75;7.20;;;0.20;67.90;;;;;;5063785;28;20522;-54
2022/12/20 06:12:14;;;;;;;10.15;7.80;;;0.30;67.70;;;;;;5075360;28;20029;-53
2022/12/20 06:14:40;;;;;;;10.07;7.53;;;0.30;67.30;;;;;;5075302;28;20378;-52
2022/12/20 06:17:06;;;;;;;9.82;7.30;;;0.40;67.20;;;;;;5075575;28;20028;-50
2022/12/20 06:19:32;;;;;;;10.95;7.20;;;0.40;67.00;;;;;;5075482;28;20036;-54
2022/12/20 06:21:57;;;;;;;10.10;7.50;;;0.50;66.70;;;;;;5075474;28;20464;-54
2022/12/20 06:24:24;;;;;;;7.60;6.20;;;0.50;66.50;;;;;;5075131;28;20021;-51
2022/12/20 06:26:50;;;;;;;9.25;7.05;;;0.60;66.40;;;;;;5074169;28;20417;-52
2022/12/20 06:29:16;;;;;;;9.82;7.18;;;0.60;66.40;;;;;;5075039;28;20025;-50
2022/12/20 06:31:43;;;;;;;9.13;6.93;;;0.70;66.20;;;;;;5075060;28;20405;-53
2022/12/20 06:34:08;;;;;;;10.05;7.80;;;0.80;66.10;;;;;;5063205;28;20074;-52
2022/12/20 06:36:34;;;;;;;10.48;7.75;;;0.80;65.80;;;;;;5061622;28;20432;-54
2022/12/20 06:39:00;;;;;;;9.70;7.00;;;0.80;65.50;;;;;;5059757;28;20025;-54
2022/12/20 06:41:26;;;;;;;10.85;7.93;;;0.90;65.40;;;;;;5054742;28;20033;-53
2022/12/20 06:43:51;;;;;;;9.32;7.55;;;0.90;65.40;;;;;;5054714;28;20028;-53
2022/12/20 06:46:17;;;;;;;9.32;6.72;;;1.00;65.20;;;;;;5054699;28;20417;-54
2022/12/20 06:48:42;;;;;;;10.18;7.93;;;1.00;64.80;;;;;;5066161;28;20159;-53
2022/12/20 06:51:09;;;;;;;9.63;7.43;;;1.00;64.40;;;;;;5054078;28;20131;-53
2022/12/20 06:53:35;;;;;;;11.23;7.40;;;1.00;64.20;;;;;;5054624;28;20425;-52
2022/12/20 06:56:01;;;;;;;9.55;6.72;;;1.00;63.80;;;;;;5054498;28;20100;-54
2022/12/20 06:58:26;;;;;;;8.90;6.97;;;1.00;63.50;;;;;;5054530;28;20029;-51
2022/12/20 07:00:53;;;;;;;8.93;6.20;;;0.90;63.10;;;;;;5054167;28;20029;-53
2022/12/20 07:03:19;;;;;;;12.02;6.40;;;0.90;63.00;;;;;;5054321;28;20041;-52
2022/12/20 07:05:52;;;;;;;9.02;6.85;;;0.90;62.70;;;;;;5054024;28;20017;-53
2022/12/20 07:08:18;;;;;;;11.43;6.97;;;0.90;62.40;;;;;;5065072;28;20021;-52
2022/12/20 07:10:44;;;;;;;9.48;6.90;;;0.90;62.50;;;;;;5054163;28;20036;-52
2022/12/20 07:13:09;;;;;;;9.63;7.70;;;0.90;62.50;;;;;;5054112;28;20025;-57
2022/12/20 07:15:35;;;;;;;9.25;7.57;;;1.00;62.60;;;;;;5061745;28;20028;-56
2022/12/20 07:18:02;;;;;;;10.13;7.55;;;1.00;62.60;;;;;;5053640;28;20021;-53
2022/12/20 07:20:28;;;;;;;10.07;7.50;;;1.00;62.50;;;;;;5053982;28;20029;-55
2022/12/20 07:22:53;;;;;;;11.02;8.25;;;1.10;62.70;;;;;;5053558;28;20033;-53
2022/12/20 07:25:19;;;;;;;11.40;7.80;;;1.10;62.70;;;;;;5053949;28;20471;-54
2022/12/20 07:27:49;;;;;;;10.40;6.93;;;1.20;62.70;;;;;;5053849;28;20574;-53
2022/12/20 07:30:16;;;;;;;8.65;6.38;;;1.20;62.60;;;;;;5053911;28;20383;-55
2022/12/20 07:32:41;;;;;;;9.98;6.88;;;1.30;62.40;;;;;;5053789;28;20033;-52
2022/12/20 07:35:09;;;;;;;10.38;6.68;;;1.30;62.50;;;;;;5053490;28;20032;-55
2022/12/20 07:37:35;;;;;;;8.18;6.10;;;1.40;62.40;;;;;;5053440;28;20040;-50
2022/12/20 07:40:00;;;;;;;8.07;6.28;;;1.50;62.40;;;;;;5053708;28;20028;-51
2022/12/20 07:42:26;;;;;;;8.80;6.70;;;1.50;62.00;;;;;;5053616;28;20528;-53
2022/12/20 07:44:52;;;;;;;9.27;6.63;;;1.60;61.90;;;;;;5053736;28;20467;-55
2022/12/20 07:47:17;;;;;;;9.57;7.07;;;1.60;61.50;;;;;;5053660;28;20029;-52
2022/12/20 07:49:43;;;;;;;11.98;7.05;;;1.70;61.30;;;;;;5053619;28;20055;-54
2022/12/20 07:52:12;;;;;;;10.98;7.43;;;1.70;61.10;;;;;;5053625;28;20060;-53
2022/12/20 07:54:44;;;;;;;8.43;6.43;;;1.80;61.00;;;;;;5053448;28;20107;-51
2022/12/20 07:57:18;;;;;;;10.05;6.30;;;1.80;60.90;;;;;;5053702;28;20031;-53
2022/12/20 07:59:49;;;;;;;9.55;7.28;;;1.90;60.90;;;;;;5053496;28;20463;-55
2022/12/20 08:02:18;;;;;;;10.48;7.30;;;1.90;60.80;;;;;;5054052;28;20048;-54
2022/12/20 08:04:44;;;;;;;12.45;8.10;;;2.00;60.50;;;;;;5052945;28;20086;-55
2022/12/20 08:07:10;;;;;;;8.82;7.07;;;2.00;60.50;;;;;;5053087;28;20025;-53
2022/12/20 08:09:40;;;;;;;8.63;6.00;;;2.00;60.40;;;;;;5053208;28;20025;-52
2022/12/20 08:12:09;;;;;;;8.68;6.43;;;2.10;60.50;;;;;;5053227;28;20471;-55
2022/12/20 08:14:35;;;;;;;9.20;6.72;;;2.20;60.50;;;;;;5053123;28;20463;-55
2022/12/20 08:17:00;;;;;;;7.70;6.30;;;2.10;60.50;;;;;;5053168;28;20329;-54
2022/12/20 08:19:26;;;;;;;8.95;6.65;;;2.20;60.50;;;;;;5053200;28;20075;-50
2022/12/20 08:21:52;;;;;;;9.48;6.78;;;2.30;60.60;;;;;;5052790;28;20021;-54
2022/12/20 08:24:17;;;;;;;10.00;6.85;;;2.30;60.60;;;;;;5053282;28;20363;-50
2022/12/20 08:26:43;;;;;;;10.85;7.25;;;2.40;60.70;;;;;;5053124;28;20053;-51
2022/12/20 08:29:09;;;;;;;8.15;6.50;;;2.40;60.50;;;;;;5053150;28;20029;-49
2022/12/20 08:31:39;;;;;;;12.48;6.65;;;2.50;60.50;;;;;;5053994;28;20413;-48
2022/12/20 08:34:06;;;;;;;10.40;6.15;;;2.50;60.40;;;;;;5053134;28;20017;-54
2022/12/20 08:36:31;;;;;;;10.55;7.85;;;2.60;60.40;;;;;;5052885;28;20537;-50
2022/12/20 08:38:57;;;;;;;10.75;7.40;;;2.60;60.20;;;;;;5053274;28;20025;-53
2022/12/20 08:41:24;;;;;;;10.90;7.03;;;2.60;60.00;;;;;;5053098;28;20029;-53
2022/12/20 08:43:49;;;;;;;9.35;6.55;;;2.60;60.00;;;;;;5053197;28;20099;-54
2022/12/20 08:46:16;;;;;;;9.98;6.68;;;2.70;60.10;;;;;;5052960;28;20024;-55
2022/12/20 08:48:42;;;;;;;10.23;6.55;;;2.70;60.40;;;;;;5034549;28;20132;-53
2022/12/20 08:51:09;;;;;;;11.88;7.55;;;2.80;60.70;;;;;;5056726;28;20067;-54
2022/12/20 08:53:35;;;;;;;9.93;6.72;;;2.80;60.30;;;;;;5056583;28;20379;-51
2022/12/20 08:56:10;;;;;;;9.73;7.13;;;2.80;60.00;;;;;;5056661;28;20028;-54
2022/12/20 08:58:36;;;;;;;12.27;7.50;;;2.90;60.60;;;;;;5056418;28;20029;-55
2022/12/20 09:01:04;;;;;;;10.40;6.88;;;2.90;60.80;;;;;;5056504;28;20059;-55
2022/12/20 09:03:31;;;;;;;10.15;7.40;;;3.00;60.70;;;;;;5056248;28;20041;-56
2022/12/20 09:05:58;;;;;;;8.45;6.38;;;3.00;60.40;;;;;;5056839;28;20100;-55
2022/12/20 09:08:23;;;;;;;9.93;7.13;;;3.10;60.50;;;;;;5056414;28;20021;-52
2022/12/20 09:10:49;;;;;;;9.40;7.15;;;3.10;60.40;;;;;;5056213;28;20044;-52
2022/12/20 09:13:15;;;;;;;10.13;6.30;;;3.20;60.50;;;;;;5056414;28;20082;-55
2022/12/20 09:15:41;;;;;;;12.05;7.45;;;3.20;60.40;;;;;;5056309;28;20032;-53
2022/12/20 09:18:07;;;;;;;10.38;6.45;;;3.20;60.40;;;;;;5056379;28;20475;-53
2022/12/20 09:20:33;;;;;;;10.05;6.75;;;3.30;60.30;;;;;;5056341;28;20037;-55
2022/12/20 09:22:59;;;;;;;11.75;7.63;;;3.30;60.30;;;;;;5056230;28;20032;-54
2022/12/20 09:25:25;;;;;;;10.23;6.10;;;3.40;60.20;;;;;;5056193;28;20025;-51
2022/12/20 09:27:55;;;;;;;11.38;7.80;;;3.40;60.30;;;;;;5056135;28;20029;-54
2022/12/20 09:30:21;;;;;;;10.38;6.25;;;3.40;60.30;;;;;;5056370;28;20028;-54
2022/12/20 09:32:47;;;;;;;10.18;6.85;;;3.40;60.30;;;;;;5064535;28;20073;-54
2022/12/20 09:35:12;;;;;;;8.60;5.70;;;3.50;60.30;;;;;;5076280;28;20111;-55
2022/12/20 09:37:40;;;;;;;8.73;6.00;;;3.60;60.30;;;;;;5075996;28;20486;-57
2022/12/20 09:40:09;;;;;;;11.40;6.88;;;3.60;60.30;;;;;;5075633;28;20028;-56
2022/12/20 09:42:35;;;;;;;8.82;5.68;;;3.70;60.20;;;;;;5075787;28;20055;-55
2022/12/20 09:45:07;;;;;;;8.68;5.38;;;3.70;60.20;;;;;;5075971;28;20121;-57
2022/12/20 09:47:36;;;;;;;7.90;5.72;;;3.80;59.90;;;;;;5075932;28;20036;-53
2022/12/20 09:50:05;;;;;;;7.53;5.38;;;3.80;60.10;;;;;;5075497;28;20075;-53
2022/12/20 09:52:50;;;;;;;8.30;5.50;;;3.90;60.10;;;;;;5075629;28;20073;-54
2022/12/20 09:55:34;;;;;;;7.15;6.07;;;3.90;60.00;;;;;;5075426;28;20025;-56
2022/12/20 09:58:21;;;;;;;8.77;5.72;;;4.00;60.00;;;;;;5075249;28;20102;-55
2022/12/20 10:00:48;;;;;;;7.20;4.90;;;4.10;60.10;;;;;;5075271;28;20036;-53
2022/12/20 10:43:42;;;;;;;7.38;4.82;;;5.10;59.40;;;;;;5054987;28;20035;-52
2022/12/20 10:46:09;;;;;;;7.13;4.95;;;5.20;59.20;;;;;;5054187;28;20090;-55
2022/12/20 10:48:42;;;;;;;5.32;4.50;;;5.30;58.90;;;;;;5070503;28;20024;-53
2022/12/20 10:51:11;;;;;;;7.07;5.20;;;5.40;58.70;;;;;;5074517;28;20021;-53
2022/12/20 10:53:48;;;;;;;6.05;4.78;;;5.40;58.50;;;;;;5073981;28;20036;-53
2022/12/20 10:56:27;;;;;;;5.75;4.65;;;5.50;58.20;;;;;;5070925;28;20537;-50
2022/12/20 10:58:58;;;;;;;6.75;4.55;;;5.50;57.90;;;;;;5054473;28;20506;-51
2022/12/20 11:01:30;;;;;;;5.88;4.50;;;5.50;57.50;;;;;;5054305;28;20364;-55
2022/12/20 11:04:05;;;;;;;7.20;5.00;;;5.50;57.50;;;;;;5053061;28;20048;-53
2022/12/20 11:06:37;;;;;;;5.45;4.40;;;5.60;57.50;;;;;;5053581;28;20045;-55
2022/12/20 11:09:18;;;;;;;;;;;5.50;57.20;;;;;;5054122;28;20037;-49
2022/12/20 11:12:16;;;;;;;5.18;4.30;;;5.60;57.00;;;;;;5053526;28;19905;-50
2022/12/20 11:14:44;;;;;;;7.03;4.70;;;5.60;57.10;;;;;;5048269;28;20033;-51
2022/12/20 11:17:18;;;;;;;6.32;4.30;;;5.70;57.00;;;;;;5054603;28;20108;-52
2022/12/20 11:20:31;;;;;;;6.07;4.68;;;5.70;56.80;;;;;;5054057;28;20021;-51
2022/12/20 11:23:14;;;;;;;5.60;3.80;;;5.70;56.00;;;;;;4972871;28;20031;-50
2022/12/20 11:25:46;;;;;;;8.65;4.43;;;5.70;55.80;;;;;;5046687;28;20037;-54
2022/12/20 11:28:30;;;;;;;5.55;3.92;;;5.80;55.50;;;;;;5053826;28;20115;-52
2022/12/20 11:31:34;;;;;;;4.72;3.40;;;5.70;55.30;;;;;;5053656;28;20037;-54
2022/12/20 11:34:02;;;;;;;5.15;3.22;;;5.80;55.30;;;;;;5049896;28;20037;-54
2022/12/20 11:36:52;;;;;;;4.30;3.35;;;5.80;55.00;;;;;;5053711;28;20427;-55
2022/12/20 11:39:36;;;;;;;7.28;3.72;;;5.80;54.80;;;;;;5053698;28;20029;-52
2022/12/20 11:42:27;;;;;;;4.15;3.20;;;5.80;54.50;;;;;;5053642;28;20064;-53
2022/12/20 11:45:22;;;;;;;5.38;3.80;;;5.80;54.60;;;;;;5053459;28;20035;-51
2022/12/20 11:47:56;;;;;;;5.53;3.80;;;5.80;54.30;;;;;;5053554;28;20048;-51
2022/12/20 11:50:52;;;;;;;5.70;3.47;;;5.80;54.30;;;;;;5053573;28;20033;-54
2022/12/20 11:53:45;;;;;;;5.00;3.58;;;5.80;54.00;;;;;;5053860;28;20032;-50
2022/12/20 11:56:29;;;;;;;5.53;3.47;;;5.80;54.10;;;;;;5042342;28;20028;-53
2022/12/20 11:59:02;;;;;;;6.25;3.67;;;5.80;54.00;;;;;;5053502;28;20545;-53
2022/12/20 12:01:39;;;;;;;5.88;4.05;;;5.80;54.00;;;;;;5053709;28;20043;-54
2022/12/20 12:04:24;;;;;;;5.70;3.88;;;5.80;54.00;;;;;;5053034;28;20049;-52
2022/12/20 12:07:01;;;;;;;5.07;3.80;;;5.80;53.90;;;;;;5053219;28;20045;-55
2022/12/20 12:09:39;;;;;;;5.43;4.18;;;5.80;53.90;;;;;;5053281;28;20051;-52
2022/12/20 12:12:09;;;;;;;6.00;3.90;;;5.70;53.90;;;;;;5053904;28;20025;-50
2022/12/20 12:14:41;;;;;;;4.85;3.67;;;5.70;54.00;;;;;;5053304;28;20092;-54
2022/12/20 12:17:23;;;;;;;5.03;3.65;;;5.70;54.10;;;;;;5053214;28;20356;-55
2022/12/20 12:19:53;;;;;;;5.07;3.47;;;5.80;54.30;;;;;;5052898;28;20028;-54
2022/12/20 12:22:25;;;;;;;4.78;3.80;;;5.90;54.50;;;;;;5053040;28;20021;-55
2022/12/20 12:24:56;;;;;;;4.63;3.47;;;5.90;54.40;;;;;;5055307;28;20070;-52
2022/12/20 12:27:24;;;;;;;4.95;3.75;;;5.90;54.30;;;;;;5057143;28;20036;-54
2022/12/20 12:29:53;;;;;;;5.07;3.80;;;5.90;54.10;;;;;;5057205;28;20029;-53
2022/12/20 12:32:44;;;;;;;6.43;3.88;;;6.00;54.00;;;;;;5057154;28;20047;-52
2022/12/20 12:35:44;;;;;;;4.90;3.28;;;6.00;53.60;;;;;;5057202;28;20507;-50
2022/12/20 12:41:50;;;;;;;3.80;3.22;;;5.90;53.10;;;;;;5057224;28;20083;-54
2022/12/20 12:44:38;;;;;;;4.18;3.05;;;5.90;53.00;;;;;;5057410;28;20029;-52
2022/12/20 12:47:15;;;;;;;5.18;3.50;;;5.90;52.90;;;;;;5057056;28;20017;-54
2022/12/20 12:49:42;;;;;;;4.80;3.58;;;5.90;52.80;;;;;;5056861;28;20021;-55
2022/12/20 12:52:33;;;;;;;5.03;3.38;;;5.90;52.70;;;;;;5069090;28;20368;-56
2022/12/20 12:54:59;;;;;;;;;;;5.90;52.60;;;;;;5076793;28;20037;-52
2022/12/20 12:57:25;;;;;;;3.22;2.88;;;5.80;52.50;;;;;;5076551;28;20278;-55
2022/12/20 12:59:51;;;;;;;5.95;3.38;;;5.90;53.00;;;;;;5076532;28;20025;-55
2022/12/20 13:02:18;;;;;;;4.65;3.60;;;5.80;52.80;;;;;;5076414;28;20434;-54
2022/12/20 13:04:53;;;;;;;3.83;3.00;;;5.90;52.90;;;;;;5058155;28;20098;-52
2022/12/20 13:07:29;;;;;;;9.68;4.25;;;5.80;53.00;;;;;;5076400;28;20024;-53
2022/12/20 13:09:54;;;;;;;5.05;3.78;;;5.90;53.00;;;;;;5068645;28;20036;-52
2022/12/20 13:12:35;;;;;;;5.43;3.90;;;5.80;53.00;;;;;;5056690;28;20021;-51
2022/12/20 13:15:23;;;;;;;4.43;3.63;;;5.80;53.00;;;;;;5056256;28;20025;-52
2022/12/20 13:25:02;;;;;;;5.60;3.95;;;5.80;53.40;;;;;;5063233;28;20079;-51
2022/12/20 13:27:37;;;;;;;6.38;4.30;;;5.80;53.40;;;;;;5075756;28;20017;-54
2022/12/20 13:30:09;;;;;;;5.22;3.95;;;5.70;53.40;;;;;;5075968;28;20025;-53
2022/12/20 13:32:49;;;;;;;4.50;3.67;;;5.70;53.40;;;;;;5075169;28;20121;-50
2022/12/20 13:35:24;;;;;;;4.80;3.88;;;5.70;53.70;;;;;;5075489;28;20031;-52
2022/12/20 13:38:05;;;;;;;5.13;3.60;;;5.70;54.30;;;;;;5075960;28;20103;-52
2022/12/20 13:40:55;;;;;;;5.10;3.70;;;5.70;53.70;;;;;;5075936;28;20028;-52
2022/12/20 13:43:20;;;;;;;6.18;4.32;;;5.70;53.30;;;;;;5075510;28;20024;-53
2022/12/20 13:46:08;;;;;;;5.45;3.78;;;5.60;53.70;;;;;;5076270;28;20016;-54
2022/12/20 13:48:45;;;;;;;4.90;3.80;;;5.60;53.60;;;;;;5075572;28;20056;-52
2022/12/20 13:51:20;;;;;;;5.93;3.97;;;5.60;53.80;;;;;;5075653;28;20475;-56
2022/12/20 13:53:56;;;;;;;6.70;4.20;;;5.60;53.80;;;;;;5075580;28;20043;-54
2022/12/20 13:56:31;;;;;;;5.15;4.07;;;5.60;53.80;;;;;;5075578;28;20082;-54
2022/12/20 13:59:06;;;;;;;5.10;4.07;;;5.60;53.80;;;;;;5075228;28;20108;-54
2022/12/20 14:01:33;;;;;;;5.82;3.97;;;5.60;53.80;;;;;;5059271;28;20029;-54
2022/12/20 14:04:05;;;;;;;5.88;4.10;;;5.60;53.80;;;;;;5055487;28;20064;-56
2022/12/20 14:06:32;;;;;;;6.45;4.85;;;5.50;53.70;;;;;;5055503;28;20104;-54
2022/12/20 14:08:57;;;;;;;5.85;4.28;;;5.50;53.80;;;;;;5055078;28;20111;-55
2022/12/20 14:11:25;;;;;;;5.15;3.85;;;5.50;53.80;;;;;;5055425;28;20510;-53
2022/12/20 14:13:57;;;;;;;5.07;4.00;;;5.50;53.80;;;;;;5055022;28;20099;-52
2022/12/20 14:16:25;;;;;;;7.13;4.43;;;5.40;53.60;;;;;;5055189;28;20029;-50
2022/12/20 14:19:01;;;;;;;5.25;3.85;;;5.40;53.80;;;;;;5055222;28;20437;-52
2022/12/20 14:21:28;;;;;;;5.93;4.75;;;5.40;53.90;;;;;;5055472;28;20064;-53
2022/12/20 14:23:57;;;;;;;6.20;4.75;;;5.40;53.80;;;;;;5055036;28;20032;-51
2022/12/20 14:26:34;;;;;;;5.43;4.43;;;5.40;53.80;;;;;;5055077;28;20025;-53
2022/12/20 14:29:00;;;;;;;5.55;4.53;;;5.40;53.40;;;;;;5053886;28;20425;-54
2022/12/20 14:31:34;;;;;;;6.32;4.53;;;5.30;53.40;;;;;;5055606;28;20029;-55
2022/12/20 14:34:10;;;;;;;5.07;3.85;;;5.30;53.60;;;;;;5054952;28;20025;-54
2022/12/20 14:36:41;;;;;;;6.68;4.47;;;5.30;53.50;;;;;;5054837;28;20032;-50
2022/12/20 14:39:26;;;;;;;6.82;4.68;;;5.20;53.50;;;;;;5054755;28;20037;-50
2022/12/20 14:42:12;;;;;;;5.32;4.10;;;5.20;53.80;;;;;;5054659;28;20054;-55
2022/12/20 14:44:38;;;;;;;7.68;4.47;;;5.10;53.90;;;;;;5054346;28;20383;-51
2022/12/20 14:47:24;;;;;;;5.90;4.50;;;5.10;54.00;;;;;;5053674;28;20417;-54
2022/12/20 14:49:59;;;;;;;6.53;4.88;;;5.10;54.10;;;;;;5054605;28;20052;-55
2022/12/20 14:52:36;;;;;;;7.28;4.60;;;5.10;53.90;;;;;;5069113;28;20074;-52
2022/12/20 14:55:07;;;;;;;7.40;5.25;;;5.10;53.90;;;;;;5074114;28;20024;-55
2022/12/20 14:57:36;;;;;;;6.22;4.50;;;5.00;53.90;;;;;;5074250;28;20044;-51
2022/12/20 15:00:16;;;;;;;6.30;4.28;;;5.00;53.90;;;;;;5074366;28;20107;-49
2022/12/20 15:02:49;;;;;;;5.60;4.50;;;5.00;54.10;;;;;;5074207;28;20486;-48
2022/12/20 15:05:37;;;;;;;5.57;4.18;;;5.00;54.30;;;;;;5073836;28;20453;-52
2022/12/20 15:08:22;;;;;;;6.38;4.47;;;5.00;54.20;;;;;;5074480;28;20025;-53
2022/12/20 15:11:13;;;;;;;7.07;4.38;;;5.10;54.10;;;;;;5074222;28;20024;-50
2022/12/20 15:13:45;;;;;;;5.50;4.40;;;5.10;54.10;;;;;;5074153;28;20054;-51
2022/12/20 15:16:27;;;;;;;7.20;4.90;;;5.10;54.00;;;;;;5074262;28;20108;-51